createdAt,value
2023-02-27T00:01:34.610Z,99004.85
2023-02-27T00:04:04.150Z,99002.23
2023-02-27T00:06:32.611Z,99007.06
2023-02-27T00:09:01.006Z,99005.67
2023-02-27T00:11:30.040Z,99007.98
2023-02-27T00:13:59.412Z,99003.10
2023-02-27T00:16:33.148Z,99004.39
2023-02-27T00:19:04.615Z,99005.17
2023-02-27T00:21:32.708Z,99005.24
2023-02-27T00:24:10.930Z,99004.96
2023-02-27T00:26:39.133Z,99005.42
2023-02-27T00:29:07.961Z,99010.67
2023-02-27T00:31:36.754Z,99011.02
2023-02-27T00:34:05.101Z,99014.79
2023-02-27T00:36:33.616Z,99015.96
2023-02-27T00:39:01.974Z,99016.30
2023-02-27T00:41:30.986Z,99018.19
2023-02-27T00:44:02.035Z,99021.96
2023-02-27T00:46:31.039Z,99015.31
2023-02-27T00:48:59.446Z,99019.39
2023-02-27T00:51:28.364Z,99016.76
2023-02-27T00:53:57.323Z,99011.20
2023-02-27T00:56:25.925Z,99010.12
2023-02-27T00:58:54.200Z,99008.55
2023-02-27T01:01:23.292Z,99009.92
2023-02-27T01:03:52.216Z,99013.23
2023-02-27T01:06:21.217Z,99016.52
2023-02-27T01:08:50.000Z,99022.73
2023-02-27T01:11:22.626Z,99025.02
2023-02-27T01:13:51.121Z,99026.08
2023-02-27T01:16:19.604Z,99028.70
2023-02-27T01:18:48.692Z,99027.92
2023-02-27T01:21:17.695Z,99032.06
2023-02-27T01:23:51.522Z,99037.77
2023-02-27T01:26:20.942Z,99038.64
2023-02-27T01:28:49.210Z,99034.89
2023-02-27T01:31:18.130Z,99043.31
2023-02-27T01:33:46.409Z,99044.02
2023-02-27T01:36:16.864Z,99053.46
2023-02-27T01:38:45.231Z,99048.98
2023-02-27T01:41:15.779Z,99048.59
2023-02-27T01:44:13.868Z,99050.08
2023-02-27T01:46:45.567Z,99048.88
2023-02-27T01:49:21.039Z,99046.66
2023-02-27T01:52:05.942Z,99052.29
2023-02-27T01:54:39.881Z,99052.12
2023-02-27T01:57:08.081Z,99051.10
2023-02-27T01:59:39.756Z,99051.50
2023-02-27T02:02:11.790Z,99050.27
2023-02-27T02:04:40.102Z,99051.60
2023-02-27T02:07:10.281Z,99055.61
2023-02-27T02:09:45.409Z,99053.85
2023-02-27T02:12:14.402Z,99059.62
2023-02-27T02:14:44.530Z,99058.70
2023-02-27T02:17:48.195Z,99059.46
2023-02-27T02:20:45.843Z,99062.66
2023-02-27T02:23:35.906Z,99064.55
2023-02-27T02:26:27.795Z,99066.34
2023-02-27T02:29:10.818Z,99066.95
2023-02-27T02:31:53.944Z,99072.70
2023-02-27T02:34:52.250Z,99070.55
2023-02-27T02:37:59.926Z,99074.90
2023-02-27T02:40:35.361Z,99077.08
2023-02-27T02:43:12.733Z,99073.09
2023-02-27T02:46:13.690Z,99078.19
2023-02-27T02:49:33.144Z,99084.42
2023-02-27T02:52:02.864Z,99086.19
2023-02-27T02:54:46.565Z,99091.23
2023-02-27T02:57:21.617Z,99097.85
2023-02-27T02:59:57.497Z,99100.63
2023-02-27T03:05:13.834Z,99104.32
2023-02-27T03:07:47.946Z,99108.96
2023-02-27T03:10:19.947Z,99116.83
2023-02-27T03:13:09.394Z,99114.23
2023-02-27T03:15:48.075Z,99124.33
2023-02-27T03:18:20.790Z,99121.61
2023-02-27T03:21:02.538Z,99129.67
2023-02-27T03:23:34.902Z,99134.19
2023-02-27T03:26:04.937Z,99131.73
2023-02-27T03:28:36.001Z,99138.02
2023-02-27T03:31:11.726Z,99139.87
2023-02-27T03:33:47.637Z,99140.58
2023-02-27T03:36:37.234Z,99148.30
2023-02-27T03:39:28.837Z,99144.17
2023-02-27T03:42:01.407Z,99151.99
2023-02-27T03:45:16.756Z,99150.21
2023-02-27T03:47:45.335Z,99165.46
2023-02-27T03:50:14.040Z,99166.66
2023-02-27T03:52:43.054Z,99168.77
2023-02-27T03:55:14.194Z,99170.25
2023-02-27T03:57:42.685Z,99169.38
2023-02-27T04:00:17.204Z,99173.10
2023-02-27T04:02:50.567Z,99173.19
2023-02-27T04:05:21.427Z,99174.43
2023-02-27T04:08:09.202Z,99171.75
2023-02-27T04:10:55.090Z,99179.80
2023-02-27T04:13:53.922Z,99175.80
2023-02-27T04:16:34.014Z,99174.59
2023-02-27T04:19:44.219Z,99185.04
2023-02-27T04:22:22.449Z,99182.77
2023-02-27T04:24:56.798Z,99187.21
2023-02-27T04:27:34.417Z,99186.02
2023-02-27T04:30:25.320Z,99184.90
2023-02-27T04:33:14.668Z,99189.67
2023-02-27T04:36:05.991Z,99190.02
2023-02-27T04:39:01.188Z,99190.32
2023-02-27T04:41:45.589Z,99196.61
2023-02-27T04:44:14.087Z,99187.34
2023-02-27T04:46:43.090Z,99194.83
2023-02-27T04:49:33.121Z,99193.12
2023-02-27T04:52:06.851Z,99199.23
2023-02-27T04:55:07.552Z,99196.70
2023-02-27T04:58:00.890Z,99195.69
2023-02-27T05:00:29.334Z,99199.08
2023-02-27T05:03:19.653Z,99206.31
2023-02-27T05:05:48.140Z,99214.42
2023-02-27T05:08:19.740Z,99210.00
2023-02-27T05:10:53.855Z,99217.35
2023-02-27T05:13:35.199Z,99218.61
2023-02-27T05:16:20.353Z,99220.54
2023-02-27T05:18:49.124Z,99225.02
2023-02-27T05:21:23.266Z,99227.59
2023-02-27T05:24:06.864Z,99228.19
2023-02-27T05:27:06.374Z,99228.60
2023-02-27T05:29:59.298Z,99234.42
2023-02-27T05:32:36.176Z,99236.64
2023-02-27T05:35:16.986Z,99240.92
2023-02-27T05:38:03.433Z,99242.33
2023-02-27T05:40:38.226Z,99250.29
2023-02-27T05:43:09.709Z,99246.05
2023-02-27T05:45:39.373Z,99247.27
2023-02-27T05:48:26.164Z,99255.89
2023-02-27T05:50:54.369Z,99257.55
2023-02-27T05:53:25.239Z,99264.31
2023-02-27T05:55:54.472Z,99266.44
2023-02-27T05:58:31.134Z,99269.96
2023-02-27T06:01:01.177Z,99271.98
2023-02-27T06:03:30.238Z,99277.19
2023-02-27T06:05:59.333Z,99272.75
2023-02-27T06:08:27.839Z,99279.52
2023-02-27T06:11:00.374Z,99277.22
2023-02-27T06:13:29.704Z,99275.48
2023-02-27T06:15:57.928Z,99280.52
2023-02-27T06:18:26.176Z,99284.04
2023-02-27T06:20:55.215Z,99283.71
2023-02-27T06:23:25.542Z,99287.48
2023-02-27T06:25:54.541Z,99282.16
2023-02-27T06:28:22.871Z,99286.23
2023-02-27T06:30:55.801Z,99288.46
2023-02-27T06:33:26.071Z,99287.19
2023-02-27T06:35:55.863Z,99287.80
2023-02-27T06:38:25.217Z,99289.14
2023-02-27T06:40:54.030Z,99291.33
2023-02-27T06:43:23.282Z,99292.98
2023-02-27T06:45:55.468Z,99298.07
2023-02-27T06:48:23.944Z,99295.79
2023-02-27T06:50:53.723Z,99293.02
2023-02-27T06:53:23.342Z,99290.27
2023-02-27T06:55:52.301Z,99288.42
2023-02-27T06:58:21.312Z,99283.23
2023-02-27T07:00:49.558Z,99287.75
2023-02-27T07:03:17.866Z,99282.16
2023-02-27T07:05:49.985Z,99287.34
2023-02-27T07:08:19.497Z,99290.98
2023-02-27T07:10:49.209Z,99295.54
2023-02-27T07:13:19.682Z,99292.77
2023-02-27T07:15:49.171Z,99297.48
2023-02-27T07:18:17.326Z,99300.44
2023-02-27T07:20:45.725Z,99302.36
2023-02-27T07:23:14.702Z,99310.19
2023-02-27T07:25:42.908Z,99308.79
2023-02-27T07:28:11.567Z,99310.48
2023-02-27T07:30:40.838Z,99309.05
2023-02-27T07:33:09.364Z,99309.66
2023-02-27T07:35:38.015Z,99318.02
2023-02-27T07:38:06.966Z,99317.63
2023-02-27T07:40:35.566Z,99318.54
2023-02-27T07:43:05.740Z,99317.71
2023-02-27T07:45:34.075Z,99316.68
2023-02-27T07:48:02.283Z,99316.65
2023-02-27T07:50:30.903Z,99316.31
2023-02-27T07:52:59.704Z,99314.61
2023-02-27T07:55:27.885Z,99317.68
2023-02-27T07:58:02.741Z,99319.02
2023-02-27T08:00:32.360Z,99319.66
2023-02-27T08:03:00.892Z,99326.50
2023-02-27T08:05:30.200Z,99325.80
2023-02-27T08:07:58.406Z,99330.61
2023-02-27T08:10:27.780Z,99333.91
2023-02-27T08:12:56.611Z,99337.33
2023-02-27T08:15:24.804Z,99342.34
2023-02-27T08:17:53.090Z,99340.73
2023-02-27T08:20:22.855Z,99342.58
2023-02-27T08:22:51.122Z,99341.86
2023-02-27T08:25:20.452Z,99348.14
2023-02-27T08:27:48.651Z,99347.50
2023-02-27T08:30:17.166Z,99355.12
2023-02-27T08:32:46.183Z,99357.77
2023-02-27T08:35:14.675Z,99362.69
2023-02-27T08:37:42.969Z,99363.52
2023-02-27T08:40:11.877Z,99365.77
2023-02-27T08:42:40.392Z,99374.98
2023-02-27T08:45:11.892Z,99375.02
2023-02-27T08:47:42.908Z,99379.20
2023-02-27T08:50:14.883Z,99378.88
2023-02-27T08:52:43.187Z,99382.95
2023-02-27T08:55:11.638Z,99383.70
2023-02-27T08:57:40.993Z,99384.88
2023-02-27T09:00:10.783Z,99384.50
2023-02-27T09:02:39.214Z,99388.88
2023-02-27T09:05:08.100Z,99388.43
2023-02-27T09:07:36.384Z,99393.76
2023-02-27T09:10:07.250Z,99393.98
2023-02-27T09:12:37.626Z,99401.30
2023-02-27T09:15:11.624Z,99399.77
2023-02-27T09:17:42.002Z,99400.05
2023-02-27T09:20:12.327Z,99403.77
2023-02-27T09:22:41.483Z,99405.42
2023-02-27T09:25:12.285Z,99405.12
2023-02-27T09:27:41.308Z,99407.16
2023-02-27T09:30:11.628Z,99407.90
2023-02-27T09:32:40.011Z,99413.17
2023-02-27T09:35:09.469Z,99414.23
2023-02-27T09:37:37.881Z,99410.00
2023-02-27T09:40:07.714Z,99408.44
2023-02-27T09:42:38.481Z,99410.09
2023-02-27T09:45:07.584Z,99414.98
2023-02-27T09:47:38.143Z,99420.98
2023-02-27T09:50:17.846Z,99416.48
2023-02-27T09:52:46.660Z,99418.13
2023-02-27T09:55:19.361Z,99418.05
2023-02-27T09:58:02.180Z,99420.83
2023-02-27T10:00:39.436Z,99420.06
2023-02-27T10:03:43.482Z,99425.98
2023-02-27T10:06:37.994Z,99430.80
2023-02-27T10:09:19.244Z,99433.27
2023-02-27T10:11:53.641Z,99433.70
2023-02-27T10:14:38.463Z,99432.20
2023-02-27T10:17:22.959Z,99433.43
2023-02-27T10:19:52.340Z,99429.96
2023-02-27T10:22:26.838Z,99431.35
2023-02-27T10:25:31.781Z,99427.23
2023-02-27T10:28:09.117Z,99431.31
2023-02-27T10:30:37.215Z,99429.15
2023-02-27T10:33:10.710Z,99434.00
2023-02-27T10:35:40.115Z,99431.82
2023-02-27T10:38:12.322Z,99437.20
2023-02-27T10:40:40.981Z,99437.52
2023-02-27T10:43:09.143Z,99435.45
2023-02-27T10:45:38.931Z,99439.11
2023-02-27T10:48:14.953Z,99437.48
2023-02-27T10:50:45.290Z,99434.98
2023-02-27T10:53:25.357Z,99437.12
2023-02-27T10:56:07.113Z,99439.70
2023-02-27T10:58:35.813Z,99440.11
2023-02-27T11:01:06.168Z,99443.00
2023-02-27T11:03:41.066Z,99443.94
2023-02-27T11:06:25.105Z,99448.46
2023-02-27T11:09:12.820Z,99448.13
2023-02-27T11:11:42.655Z,99450.14
2023-02-27T11:14:28.104Z,99450.46
2023-02-27T11:16:58.419Z,99453.71
2023-02-27T11:19:35.262Z,99452.80
2023-02-27T11:22:16.282Z,99451.15
2023-02-27T11:24:49.515Z,99454.77
2023-02-27T11:27:29.579Z,99454.25
2023-02-27T11:30:00.422Z,99460.64
2023-02-27T11:32:36.268Z,99458.50
2023-02-27T11:35:05.665Z,99466.35
2023-02-27T11:37:34.896Z,99461.58
2023-02-27T11:40:09.581Z,99464.17
2023-02-27T11:42:42.021Z,99462.85
2023-02-27T11:46:11.942Z,99468.73
2023-02-27T11:48:20.834Z,99474.17
2023-02-27T11:50:52.317Z,99471.31
2023-02-27T11:53:43.923Z,99477.95
2023-02-27T11:56:27.665Z,99484.36
2023-02-27T11:58:55.820Z,99482.48
2023-02-27T12:01:27.902Z,99484.50
2023-02-27T12:04:01.841Z,99484.66
2023-02-27T12:06:38.168Z,99482.81
2023-02-27T12:09:15.982Z,99484.55
2023-02-27T12:11:44.612Z,99484.31
2023-02-27T12:14:21.304Z,99483.77
2023-02-27T12:17:10.178Z,99485.09
2023-02-27T12:19:42.115Z,99485.52
2023-02-27T12:22:22.758Z,99488.00
2023-02-27T12:24:53.257Z,99489.41
2023-02-27T12:27:38.467Z,99488.89
2023-02-27T12:30:15.404Z,99494.71
2023-02-27T12:33:02.465Z,99495.86
2023-02-27T12:35:33.195Z,99499.66
2023-02-27T12:38:01.793Z,99503.20
2023-02-27T12:40:37.703Z,99501.96
2023-02-27T12:43:14.868Z,99505.83
2023-02-27T12:45:46.313Z,99513.02
2023-02-27T12:48:36.901Z,99515.39
2023-02-27T12:51:17.371Z,99519.16
2023-02-27T12:53:58.333Z,99519.88
2023-02-27T12:56:47.915Z,99522.94
2023-02-27T12:59:29.565Z,99522.95
2023-02-27T13:02:16.108Z,99525.99
2023-02-27T13:04:46.225Z,99527.29
2023-02-27T13:07:26.767Z,99527.79
2023-02-27T13:10:01.259Z,99531.25
2023-02-27T13:12:39.014Z,99534.09
2023-02-27T13:15:48.637Z,99535.14
2023-02-27T13:18:42.077Z,99535.77
2023-02-27T13:21:17.526Z,99534.94
2023-02-27T13:23:49.427Z,99537.98
2023-02-27T13:26:25.884Z,99541.81
2023-02-27T13:28:55.241Z,99539.50
2023-02-27T13:31:38.614Z,99546.95
2023-02-27T13:34:18.881Z,99550.11
2023-02-27T13:36:51.278Z,99549.11
2023-02-27T13:39:41.567Z,99548.65
2023-02-27T13:42:30.212Z,99545.77
2023-02-27T13:45:06.344Z,99545.89
2023-02-27T13:47:37.730Z,99545.52
2023-02-27T13:50:18.441Z,99549.67
2023-02-27T13:52:47.027Z,99547.44
2023-02-27T13:55:28.646Z,99550.47
2023-02-27T13:58:00.033Z,99550.42
2023-02-27T14:00:32.993Z,99548.52
2023-02-27T14:03:21.573Z,99553.79
2023-02-27T14:05:51.068Z,99556.48
2023-02-27T14:08:29.266Z,99562.52
2023-02-27T14:11:02.802Z,99563.31
2023-02-27T14:13:54.713Z,99563.15
2023-02-27T14:16:38.286Z,99566.77
2023-02-27T14:19:15.700Z,99568.52
2023-02-27T14:22:01.174Z,99573.86
2023-02-27T14:24:42.896Z,99578.69
2023-02-27T14:27:19.379Z,99578.19
2023-02-27T14:29:48.003Z,99580.59
2023-02-27T14:32:22.173Z,99581.98
2023-02-27T14:34:51.239Z,99584.73
2023-02-27T14:37:23.411Z,99590.38
2023-02-27T14:39:55.335Z,99589.39
2023-02-27T14:43:03.614Z,99592.67
2023-02-27T14:45:34.052Z,99595.98
2023-02-27T14:48:02.272Z,99604.16
2023-02-27T14:50:34.190Z,99606.38
2023-02-27T14:53:06.409Z,99607.30
2023-02-27T14:55:37.212Z,99607.32
2023-02-27T14:58:26.466Z,99614.95
2023-02-27T15:01:06.597Z,99621.88
2023-02-27T15:03:45.178Z,99625.04
2023-02-27T15:06:28.411Z,99630.09
2023-02-27T15:08:57.393Z,99636.17
2023-02-27T15:11:25.971Z,99642.39
2023-02-27T15:14:02.567Z,99651.36
2023-02-27T15:16:39.293Z,99650.96
2023-02-27T15:19:18.284Z,99651.95
2023-02-27T15:24:31.365Z,99659.36
2023-02-27T15:27:03.690Z,99667.87
2023-02-27T15:29:42.476Z,99672.16
2023-02-27T15:32:27.021Z,99677.80
2023-02-27T15:34:59.436Z,99683.45
2023-02-27T15:37:29.913Z,99686.17
2023-02-27T15:39:58.723Z,99687.89
2023-02-27T15:42:37.647Z,99696.27
2023-02-27T15:45:07.113Z,99696.80
2023-02-27T15:47:35.243Z,99702.82
2023-02-27T15:50:10.691Z,99704.23
2023-02-27T15:52:50.543Z,99707.52
2023-02-27T15:55:25.712Z,99711.73
2023-02-27T15:58:03.051Z,99714.96
2023-02-27T16:00:32.608Z,99720.05
2023-02-27T16:03:00.901Z,99727.30
2023-02-27T16:05:36.412Z,99728.67
2023-02-27T16:08:05.831Z,99738.16
2023-02-27T16:10:40.931Z,99736.76
2023-02-27T16:13:27.751Z,99735.20
2023-02-27T16:16:21.391Z,99742.58
2023-02-27T16:18:57.314Z,99745.83
2023-02-27T16:21:26.660Z,99751.39
2023-02-27T16:23:55.096Z,99756.36
2023-02-27T16:26:32.893Z,99759.47
2023-02-27T16:29:17.934Z,99762.84
2023-02-27T16:31:47.779Z,99770.48
2023-02-27T16:34:20.663Z,99773.66
2023-02-27T16:36:54.434Z,99778.17
2023-02-27T16:39:22.460Z,99780.52
2023-02-27T16:41:53.232Z,99781.41
2023-02-27T16:44:22.574Z,99782.77
2023-02-27T16:46:52.343Z,99786.16
2023-02-27T16:49:22.431Z,99791.06
2023-02-27T16:51:50.618Z,99787.98
2023-02-27T16:54:19.063Z,99793.39
2023-02-27T16:56:47.688Z,99794.97
2023-02-27T16:59:36.184Z,99798.05
2023-02-27T17:02:06.781Z,99804.23
2023-02-27T17:04:36.194Z,99807.28
2023-02-27T17:07:06.786Z,99807.71
2023-02-27T17:09:35.693Z,99809.34
2023-02-27T17:12:04.488Z,99806.77
2023-02-27T17:14:32.636Z,99813.63
2023-02-27T17:17:01.146Z,99811.48
2023-02-27T17:19:29.775Z,99815.34
2023-02-27T17:21:59.194Z,99822.77
2023-02-27T17:24:27.902Z,99822.35
2023-02-27T17:26:56.234Z,99823.33
2023-02-27T17:29:28.799Z,99822.26
2023-02-27T17:31:57.563Z,99826.89
2023-02-27T17:34:25.866Z,99827.49
2023-02-27T17:36:54.794Z,99829.68
2023-02-27T17:39:22.911Z,99832.30
2023-02-27T17:41:52.904Z,99834.79
2023-02-27T17:44:21.638Z,99837.95
2023-02-27T17:46:50.264Z,99840.79
2023-02-27T17:49:18.574Z,99838.86
2023-02-27T17:51:47.187Z,99839.73
2023-02-27T17:54:15.567Z,99839.54
2023-02-27T17:56:43.856Z,99845.17
2023-02-27T17:59:12.165Z,99845.02
2023-02-27T18:01:40.257Z,99846.33
2023-02-27T18:04:25.773Z,99853.20
2023-02-27T18:06:54.012Z,99853.73
2023-02-27T18:09:22.896Z,99853.92
2023-02-27T18:11:52.330Z,99857.02
2023-02-27T18:14:20.565Z,99859.83
2023-02-27T18:16:49.869Z,99859.50
2023-02-27T18:19:18.553Z,99862.36
2023-02-27T18:21:47.308Z,99865.05
2023-02-27T18:24:15.887Z,99867.30
2023-02-27T18:26:44.082Z,99873.79
2023-02-27T18:29:14.096Z,99873.78
2023-02-27T18:31:44.365Z,99877.05
2023-02-27T18:34:12.504Z,99876.23
2023-02-27T18:36:40.615Z,99882.52
2023-02-27T18:39:08.993Z,99888.33
2023-02-27T18:41:39.057Z,99888.85
2023-02-27T18:44:09.204Z,99892.88
2023-02-27T18:46:38.112Z,99901.63
2023-02-27T18:49:06.523Z,99901.06
2023-02-27T18:51:34.994Z,99906.09
2023-02-27T18:54:05.160Z,99907.98
2023-02-27T18:56:35.837Z,99911.73
2023-02-27T18:59:06.676Z,99917.50
2023-02-27T19:01:36.664Z,99913.98
2023-02-27T19:04:06.317Z,99921.95
2023-02-27T19:06:40.548Z,99924.93
2023-02-27T19:09:10.762Z,99924.38
2023-02-27T19:11:38.832Z,99928.27
2023-02-27T19:14:12.143Z,99927.02
2023-02-27T19:16:42.211Z,99927.17
2023-02-27T19:19:12.008Z,99928.71
2023-02-27T19:21:41.004Z,99933.45
2023-02-27T19:24:10.230Z,99938.73
2023-02-27T19:26:38.671Z,99939.73
2023-02-27T19:29:12.721Z,99943.39
2023-02-27T19:31:41.716Z,99944.34
2023-02-27T19:34:10.662Z,99944.64
2023-02-27T19:36:42.589Z,99946.88
2023-02-27T19:39:11.325Z,99949.33
2023-02-27T19:41:39.602Z,99946.55
2023-02-27T19:44:08.446Z,99951.69
2023-02-27T19:46:36.769Z,99953.11
2023-02-27T19:49:05.442Z,99950.77
2023-02-27T19:51:39.037Z,99950.29
2023-02-27T19:54:07.054Z,99951.70
2023-02-27T19:56:35.001Z,99955.23
2023-02-27T19:59:03.890Z,99953.89
2023-02-27T20:01:33.898Z,99954.23
2023-02-27T20:04:04.236Z,99951.48
2023-02-27T20:06:34.082Z,99952.60
2023-02-27T20:09:02.293Z,99952.02
2023-02-27T20:11:31.367Z,99954.94
2023-02-27T20:13:59.988Z,99952.95
2023-02-27T20:16:30.615Z,99954.59
2023-02-27T20:18:59.363Z,99959.73
2023-02-27T20:21:29.560Z,99962.44
2023-02-27T20:24:00.816Z,99971.55
2023-02-27T20:26:37.037Z,99975.48
2023-02-27T20:29:13.668Z,99979.85
2023-02-27T20:31:43.948Z,99983.89
2023-02-27T20:34:13.020Z,99983.91
2023-02-27T20:36:41.487Z,99987.77
2023-02-27T20:39:12.314Z,99992.85
2023-02-27T20:41:41.222Z,99989.46
2023-02-27T20:44:11.586Z,99996.13
2023-02-27T20:46:40.954Z,99995.09
2023-02-27T20:49:15.747Z,99995.59
2023-02-27T20:51:45.001Z,99996.66
2023-02-27T20:54:16.381Z,100003.55
2023-02-27T20:56:44.520Z,100001.25
2023-02-27T20:59:14.592Z,100001.80
2023-02-27T21:01:51.527Z,99999.41
2023-02-27T21:04:20.456Z,99996.72
2023-02-27T21:06:50.242Z,99999.94
2023-02-27T21:09:18.973Z,99996.36
2023-02-27T21:11:47.148Z,100000.77
2023-02-27T21:14:15.863Z,100001.54
2023-02-27T21:16:44.279Z,100005.27
2023-02-27T21:19:12.594Z,100009.70
2023-02-27T21:21:40.991Z,100013.96
2023-02-27T21:24:09.493Z,100012.99
2023-02-27T21:26:38.703Z,100013.86
2023-02-27T21:29:12.161Z,100015.86
2023-02-27T21:31:41.717Z,100020.11
2023-02-27T21:34:12.600Z,100028.68
2023-02-27T21:36:42.497Z,100030.55
2023-02-27T21:39:30.470Z,100028.80
2023-02-27T21:42:01.539Z,100031.52
2023-02-27T21:44:29.928Z,100035.84
2023-02-27T21:47:10.443Z,100038.84
2023-02-27T21:49:39.382Z,100036.20
2023-02-27T21:52:08.534Z,100037.11
2023-02-27T21:54:38.868Z,100030.88
2023-02-27T21:57:07.000Z,100032.77
2023-02-27T21:59:35.065Z,100032.69
2023-02-27T22:02:03.413Z,100037.34
2023-02-27T22:04:33.015Z,100040.87
2023-02-27T22:07:01.155Z,100042.98
2023-02-27T22:09:32.503Z,100040.16
2023-02-27T22:12:01.880Z,100035.06
2023-02-27T22:14:30.126Z,100034.54
2023-02-27T22:16:59.152Z,100028.04
2023-02-27T22:19:27.743Z,100025.45
2023-02-27T22:21:55.944Z,100027.60
2023-02-27T22:24:24.930Z,100028.90
2023-02-27T22:26:53.252Z,100028.73
2023-02-27T22:29:21.465Z,100029.41
2023-02-27T22:31:50.338Z,100031.14
2023-02-27T22:34:18.981Z,100034.02
2023-02-27T22:36:52.940Z,100028.77
2023-02-27T22:39:27.308Z,100031.93
2023-02-27T22:41:56.886Z,100032.83
2023-02-27T22:44:25.352Z,100030.80
2023-02-27T22:46:54.700Z,100032.08
2023-02-27T22:49:23.676Z,100032.29
2023-02-27T22:51:52.343Z,100034.52
2023-02-27T22:54:21.704Z,100036.59
2023-02-27T22:56:52.761Z,100036.63
2023-02-27T22:59:30.524Z,100040.36
2023-02-27T23:01:59.317Z,100043.23
2023-02-27T23:04:27.510Z,100043.54
2023-02-27T23:06:56.431Z,100042.84
2023-02-27T23:09:26.165Z,100042.67
2023-02-27T23:11:55.105Z,100050.36
2023-02-27T23:14:23.557Z,100044.08
2023-02-27T23:16:51.846Z,100048.24
2023-02-27T23:19:21.105Z,100045.40
2023-02-27T23:21:54.741Z,100048.00
2023-02-27T23:24:25.081Z,100051.63
2023-02-27T23:26:53.283Z,100055.66
2023-02-27T23:29:22.013Z,100057.05
2023-02-27T23:31:50.605Z,100061.02
2023-02-27T23:34:19.854Z,100060.14
2023-02-27T23:36:48.610Z,100062.95
2023-02-27T23:39:16.899Z,100061.13
2023-02-27T23:41:45.193Z,100062.16
2023-02-27T23:44:13.390Z,100061.27
2023-02-27T23:46:42.497Z,100063.88
2023-02-27T23:49:10.796Z,100068.14
2023-02-27T23:51:39.509Z,100074.39
2023-02-27T23:54:07.803Z,100082.55
2023-02-27T23:56:39.323Z,100090.66
2023-02-27T23:59:07.597Z,100097.11
